Time;durP1;ratioP1;P1;durP2;ratioP2;P2;SDS_P1;SDS_P2;PMS_P1;PMS_P2;Temp;Humidity;BMP_temperature;BMP_pressure;BME280_temperature;BME280_humidity;BME280_pressure;Samples;Min_cycle;Max_cycle;Signal;HPM_P1;HPM_P2
2022/01/16 00:00:18;;;;;;;61.55;33.15;;;;;;;-0.19;100.00;102332.28;5071971;28;20020;-79
2022/01/16 00:05:27;;;;;;;76.30;35.47;;;;;;;-0.22;100.00;102360.72;5087762;28;20056;-79
2022/01/16 00:07:53;;;;;;;69.32;34.80;;;;;;;-0.28;100.00;102345.25;5082434;28;20031;-79
2022/01/16 00:10:19;;;;;;;89.90;35.08;;;;;;;-0.31;100.00;102355.63;5092161;28;20494;-79
2022/01/16 00:12:49;;;;;;;66.57;35.10;;;;;;;-0.29;100.00;102356.47;5092036;28;20024;-79
2022/01/16 00:15:20;;;;;;;82.57;36.60;;;;;;;-0.28;100.00;102353.00;5090558;28;20052;-79
2022/01/16 00:17:55;;;;;;;91.90;35.95;;;;;;;-0.30;100.00;102370.25;5080568;28;20047;-79
2022/01/16 00:20:23;;;;;;;76.35;35.67;;;;;;;-0.30;100.00;102365.09;5071851;28;20028;-79
2022/01/16 00:22:49;;;;;;;75.32;36.35;;;;;;;-0.31;100.00;102360.78;5089126;28;20024;-79
2022/01/16 00:25:16;;;;;;;69.68;34.63;;;;;;;-0.32;100.00;102354.75;5091199;28;20035;-79
2022/01/16 00:27:42;;;;;;;71.15;35.35;;;;;;;-0.28;100.00;102350.44;5091006;28;20028;-79
2022/01/16 00:30:09;;;;;;;70.80;35.80;;;;;;;-0.26;100.00;102325.41;5092331;28;20098;-79
2022/01/16 00:32:34;;;;;;;77.75;36.40;;;;;;;-0.26;100.00;102321.97;5091362;28;20024;-79
2022/01/16 00:35:00;;;;;;;72.38;34.63;;;;;;;-0.25;100.00;102334.88;5090883;28;20097;-81
2022/01/16 00:37:25;;;;;;;73.15;35.22;;;;;;;-0.23;100.00;102351.25;5092166;28;20031;-81
2022/01/16 00:39:50;;;;;;;69.07;35.28;;;;;;;-0.22;100.00;102342.63;5090491;28;20028;-81
2022/01/16 00:42:16;;;;;;;75.10;34.83;;;;;;;-0.27;100.00;102338.34;5091986;28;20377;-81
2022/01/16 00:44:41;;;;;;;73.13;36.63;;;;;;;-0.28;100.00;102334.06;5091046;28;20114;-80
2022/01/16 00:47:07;;;;;;;74.63;36.97;;;;;;;-0.26;100.00;102342.66;5092565;28;20028;-81
2022/01/16 00:49:36;;;;;;;74.13;35.45;;;;;;;-0.30;100.00;102328.88;5089334;28;20472;-81
2022/01/16 00:52:02;;;;;;;70.70;36.20;;;;;;;-0.28;100.00;102342.66;5091821;28;20023;-81
2022/01/16 00:54:27;;;;;;;71.10;35.75;;;;;;;-0.27;100.00;102354.72;5090110;28;20023;-81
2022/01/16 00:56:52;;;;;;;72.07;35.95;;;;;;;-0.26;100.00;102330.59;5090781;28;20460;-82
2022/01/16 00:59:18;;;;;;;74.07;36.25;;;;;;;-0.26;100.00;102301.28;5091335;28;20073;-78
2022/01/16 01:01:43;;;;;;;70.88;35.15;;;;;;;-0.26;100.00;102294.38;5089563;28;20020;-79
2022/01/16 01:04:09;;;;;;;76.35;36.03;;;;;;;-0.25;100.00;102300.41;5091708;28;20380;-79
2022/01/16 01:06:34;;;;;;;76.00;35.60;;;;;;;-0.24;100.00;102308.16;5089166;28;20085;-79
2022/01/16 01:08:59;;;;;;;79.65;36.33;;;;;;;-0.21;100.00;102299.53;5089752;28;20040;-80
2022/01/16 01:11:28;;;;;;;76.25;37.60;;;;;;;-0.22;100.00;102321.09;5090983;28;20031;-79
2022/01/16 01:14:14;;;;;;;76.50;37.30;;;;;;;-0.18;100.00;102317.59;5087627;28;20036;-81
2022/01/16 01:16:51;;;;;;;73.00;36.22;;;;;;;-0.20;100.00;102322.78;5069170;28;20539;-81
2022/01/16 01:19:18;;;;;;;78.90;37.33;;;;;;;-0.23;100.00;102293.50;5070666;28;20028;-82
2022/01/16 01:21:44;;;;;;;83.25;37.05;;;;;;;-0.23;100.00;102309.88;5069751;28;20024;-82
2022/01/16 01:24:09;;;;;;;81.30;36.95;;;;;;;-0.20;100.00;102294.34;5069245;28;20033;-81
2022/01/16 01:26:43;;;;;;;86.97;37.63;;;;;;;-0.21;100.00;102297.78;5068981;28;20031;-79
2022/01/16 01:29:08;;;;;;;87.00;37.80;;;;;;;-0.24;100.00;102308.16;5079886;28;20106;-82
2022/01/16 01:31:34;;;;;;;86.43;39.15;;;;;;;-0.24;100.00;102313.34;5089468;28;20205;-81
2022/01/16 01:33:59;;;;;;;91.47;37.65;;;;;;;-0.24;100.00;102303.00;5091426;28;20566;-81
2022/01/16 01:36:25;;;;;;;85.60;35.92;;;;;;;-0.22;100.00;102275.38;5090184;28;20016;-82
2022/01/16 01:38:50;;;;;;;89.15;37.53;;;;;;;-0.21;100.00;102233.13;5091857;28;20077;-79
2022/01/16 01:41:16;;;;;;;88.75;37.70;;;;;;;-0.19;100.00;102228.81;5091032;28;20392;-80
2022/01/16 01:51:44;;;;;;;96.80;39.53;;;;;;;-0.20;100.00;102263.31;5076795;28;20039;-79
2022/01/16 01:54:14;;;;;;;93.90;38.45;;;;;;;-0.18;100.00;102269.31;5071204;28;20032;-79
2022/01/16 01:56:40;;;;;;;98.35;39.78;;;;;;;-0.16;100.00;102275.34;5070875;28;20032;-79
2022/01/16 01:59:07;;;;;;;116.80;39.08;;;;;;;-0.16;100.00;102300.34;5070579;28;20056;-80
2022/01/16 02:01:32;;;;;;;88.43;37.75;;;;;;;-0.17;100.00;102293.47;5070347;28;20409;-79
2022/01/16 02:03:59;;;;;;;107.20;39.42;;;;;;;-0.18;100.00;102305.53;5069595;28;20081;-80
2022/01/16 02:06:27;;;;;;;90.90;38.05;;;;;;;-0.21;100.00;102307.28;5084759;28;20024;-80
2022/01/16 02:09:00;;;;;;;91.22;38.55;;;;;;;-0.17;100.00;102327.94;5085740;28;20036;-80
2022/01/16 02:11:28;;;;;;;101.18;37.90;;;;;;;-0.21;100.00;102312.47;5069560;28;20441;-79
2022/01/16 02:14:09;;;;;;;115.40;38.58;;;;;;;-0.27;100.00;102323.69;5079543;28;20032;-79
2022/01/16 02:30:54;;;;;;;92.82;39.35;;;;;;;-0.40;100.00;102329.78;5089728;28;20528;-79
2022/01/16 02:35:44;;;;;;;104.07;41.63;;;;;;;-0.36;100.00;102340.13;5088537;28;20032;-79
2022/01/16 02:38:11;;;;;;;95.95;41.47;;;;;;;-0.33;100.00;102342.69;5090083;28;20028;-80
2022/01/16 02:40:40;;;;;;;92.95;42.38;;;;;;;-0.33;100.00;102339.25;5081860;28;20060;-79
2022/01/16 02:43:06;;;;;;;100.60;43.35;;;;;;;-0.34;100.00;102320.28;5088395;28;20027;-79
2022/01/16 02:45:34;;;;;;;119.85;44.50;;;;;;;-0.32;100.00;102335.78;5087635;28;20027;-79
2022/01/16 02:48:05;;;;;;;103.47;44.47;;;;;;;-0.32;100.00;102320.28;5087718;28;20395;-79
2022/01/16 02:50:33;;;;;;;104.55;44.10;;;;;;;-0.28;100.00;102319.41;5088828;28;20289;-79
2022/01/16 02:52:59;;;;;;;110.95;45.08;;;;;;;-0.30;100.00;102310.78;5088523;28;20020;-79
2022/01/16 02:55:25;;;;;;;99.75;44.30;;;;;;;-0.28;100.00;102306.47;5089135;28;20043;-80
2022/01/16 02:57:52;;;;;;;107.72;45.80;;;;;;;-0.25;100.00;102301.28;5090420;28;20020;-80
2022/01/16 03:00:19;;;;;;;115.85;45.58;;;;;;;-0.25;100.00;102282.31;5078320;28;20020;-79
2022/01/16 03:02:44;;;;;;;106.50;45.35;;;;;;;-0.26;100.00;102283.19;5068543;28;20057;-80
2022/01/16 03:05:11;;;;;;;102.70;45.33;;;;;;;-0.23;100.00;102273.69;5084103;28;20365;-79
2022/01/16 03:07:38;;;;;;;111.68;46.55;;;;;;;-0.20;100.00;102281.41;5084528;28;20027;-79
2022/01/16 03:11:20;;;;;;;118.50;46.60;;;;;;;-0.20;100.00;102262.44;5068069;28;20024;-80
2022/01/16 03:13:16;;;;;;;113.30;47.90;;;;;;;-0.17;100.00;102254.66;5069256;28;20023;-80
2022/01/16 03:15:42;;;;;;;109.90;47.88;;;;;;;-0.15;100.00;102265.84;5084016;28;20028;-79
2022/01/16 03:23:20;;;;;;;115.45;49.17;;;;;;;-0.06;100.00;102258.03;5088799;28;20030;-79
2022/01/16 03:25:46;;;;;;;118.10;50.42;;;;;;;-0.06;100.00;102258.88;5088442;28;20020;-79
2022/01/16 03:28:12;;;;;;;120.10;50.85;;;;;;;-0.06;100.00;102245.94;5088056;28;20066;-79
2022/01/16 03:30:38;;;;;;;120.53;52.20;;;;;;;0.00;100.00;102250.25;5070716;28;20507;-80
2022/01/16 03:33:04;;;;;;;124.78;53.25;;;;;;;0.01;100.00;102248.53;5076407;28;20524;-80
2022/01/16 03:35:30;;;;;;;131.23;52.50;;;;;;;0.03;100.00;102246.78;5088096;28;20073;-79
2022/01/16 03:37:55;;;;;;;125.75;54.15;;;;;;;0.03;100.00;102247.63;5087006;28;20399;-80
2022/01/16 03:40:21;;;;;;;133.77;56.05;;;;;;;0.04;100.00;102256.25;5087083;28;20470;-80
2022/01/16 03:42:49;;;;;;;128.68;54.53;;;;;;;0.05;100.00;102248.47;5087239;28;20031;-80
2022/01/16 03:45:15;;;;;;;129.65;54.67;;;;;;;0.07;100.00;102240.69;5086512;28;20020;-79
2022/01/16 03:47:41;;;;;;;133.85;56.88;;;;;;;0.06;100.00;102244.16;5087122;28;20077;-79
2022/01/16 03:50:08;;;;;;;134.45;58.28;;;;;;;0.07;100.00;102245.88;5085999;28;20102;-80
2022/01/16 03:52:34;;;;;;;132.52;57.80;;;;;;;0.09;100.00;102238.97;5086687;28;20081;-79
2022/01/16 03:55:00;;;;;;;133.23;57.13;;;;;;;0.12;100.00;102254.47;5087546;28;20102;-79
2022/01/16 03:57:25;;;;;;;129.20;59.28;;;;;;;0.13;100.00;102245.81;5087270;28;20111;-80
2022/01/16 03:59:51;;;;;;;125.53;57.30;;;;;;;0.15;100.00;102251.84;5087749;28;20043;-79
2022/01/16 04:02:16;;;;;;;120.15;57.08;;;;;;;0.16;100.00;102245.78;5088585;28;20431;-79
2022/01/16 04:04:42;;;;;;;127.15;59.72;;;;;;;0.20;100.00;102247.47;5087882;28;20797;-80
2022/01/16 04:07:12;;;;;;;131.45;58.88;;;;;;;0.21;100.00;102251.78;5086310;28;20064;-80
2022/01/16 04:09:37;;;;;;;120.97;57.72;;;;;;;0.22;100.00;102258.69;5087627;28;20043;-79
2022/01/16 04:12:03;;;;;;;116.63;57.13;;;;;;;0.23;100.00;102257.81;5088858;28;20020;-80
2022/01/16 04:17:18;;;;;;;123.22;58.80;;;;;;;0.25;100.00;102245.72;5088986;28;20028;-80
2022/01/16 04:19:45;;;;;;;126.30;58.80;;;;;;;0.31;100.00;102248.25;5088395;28;20028;-80
2022/01/16 04:22:13;;;;;;;116.60;56.88;;;;;;;0.30;100.00;102249.09;5088587;28;20028;-79
2022/01/16 04:24:39;;;;;;;123.82;59.75;;;;;;;0.30;100.00;102243.94;5087783;28;20020;-79
2022/01/16 04:27:05;;;;;;;121.95;59.08;;;;;;;0.32;100.00;102243.03;5087173;28;20028;-79
2022/01/16 04:29:31;;;;;;;115.20;57.47;;;;;;;0.34;100.00;102245.63;5088741;28;20102;-79
2022/01/16 04:31:56;;;;;;;112.43;57.30;;;;;;;0.34;100.00;102245.63;5090455;28;20066;-80
2022/01/16 04:34:22;;;;;;;113.82;56.90;;;;;;;0.36;100.00;102246.47;5090355;28;20504;-79
2022/01/16 04:36:48;;;;;;;119.68;57.95;;;;;;;0.38;100.00;102256.81;5091529;28;20008;-79
2022/01/16 04:39:19;;;;;;;119.30;59.25;;;;;;;0.39;100.00;102250.75;5092618;28;20114;-80
2022/01/16 04:44:30;;;;;;;120.97;58.90;;;;;;;0.41;100.00;102242.13;5091939;28;20463;-81
2022/01/16 04:46:55;;;;;;;114.20;57.42;;;;;;;0.40;100.00;102240.41;5091959;28;20032;-81
2022/01/16 04:49:21;;;;;;;115.43;58.03;;;;;;;0.44;100.00;102231.75;5081914;28;20097;-80
2022/01/16 04:51:46;;;;;;;113.05;58.15;;;;;;;0.44;100.00;102236.91;5071536;28;20099;-80
2022/01/16 04:54:12;;;;;;;119.50;59.67;;;;;;;0.44;100.00;102234.34;5070686;28;20104;-80
2022/01/16 04:56:37;;;;;;;118.28;61.90;;;;;;;0.45;100.00;102224.84;5086990;28;20389;-80
2022/01/16 04:59:03;;;;;;;118.05;58.15;;;;;;;0.47;100.00;102231.72;5078841;28;20028;-80
2022/01/16 05:01:29;;;;;;;112.00;58.45;;;;;;;0.49;100.00;102231.69;5077082;28;20054;-80
2022/01/16 05:03:54;;;;;;;114.10;58.20;;;;;;;0.48;100.00;102238.59;5085587;28;20479;-80
2022/01/16 05:06:20;;;;;;;110.97;59.60;;;;;;;0.49;100.00;102229.97;5084966;28;20025;-80
2022/01/16 05:08:46;;;;;;;120.20;61.42;;;;;;;0.52;100.00;102216.97;5068040;28;20235;-80
2022/01/16 05:11:14;;;;;;;122.97;59.95;;;;;;;0.54;100.00;102222.13;5087771;28;20392;-80
2022/01/16 05:18:51;;;;;;;117.88;60.50;;;;;;;0.60;100.00;102219.47;5083840;28;20126;-79
2022/01/16 05:21:17;;;;;;;127.10;62.65;;;;;;;0.62;100.00;102217.72;5069504;28;20388;-80
2022/01/16 05:23:42;;;;;;;127.72;63.45;;;;;;;0.61;100.00;102213.44;5085472;28;20119;-79
2022/01/16 05:26:09;;;;;;;125.70;63.78;;;;;;;0.66;100.00;102218.56;5071272;28;20500;-79
2022/01/16 05:28:34;;;;;;;128.57;64.07;;;;;;;0.68;100.00;102216.81;5069194;28;20028;-79
2022/01/16 05:31:00;;;;;;;135.95;66.82;;;;;;;0.71;100.00;102214.19;5077127;28;20472;-80
2022/01/16 05:33:25;;;;;;;138.05;68.38;;;;;;;0.73;100.00;102215.88;5090815;28;20028;-79
2022/01/16 05:35:51;;;;;;;138.20;66.82;;;;;;;0.72;100.00;102213.31;5089897;28;20482;-79
2022/01/16 05:38:16;;;;;;;125.95;66.55;;;;;;;0.77;100.00;102224.47;5090061;28;20042;-79
2022/01/16 05:40:43;;;;;;;133.27;66.90;;;;;;;0.80;100.00;102227.03;5090105;28;20486;-79
2022/01/16 05:43:09;;;;;;;131.63;67.88;;;;;;;0.82;100.00;102222.72;5088908;28;20106;-79
2022/01/16 05:45:34;;;;;;;131.27;66.50;;;;;;;0.83;100.00;102224.44;5090636;28;20031;-79
2022/01/16 05:48:00;;;;;;;135.55;67.75;;;;;;;0.85;100.00;102235.63;5088856;28;20044;-79
2022/01/16 05:50:25;;;;;;;139.07;67.47;;;;;;;0.88;100.00;102243.34;5089059;28;20024;-79
2022/01/16 05:52:51;;;;;;;128.93;66.55;;;;;;;0.87;100.00;102246.81;5091438;28;20035;-79
2022/01/16 05:55:17;;;;;;;133.45;68.32;;;;;;;0.89;100.00;102238.16;5089469;28;20396;-79
2022/01/16 05:57:44;;;;;;;138.60;67.18;;;;;;;0.91;100.00;102232.97;5090679;28;20032;-79
2022/01/16 06:00:11;;;;;;;144.75;69.40;;;;;;;0.96;100.00;102238.94;5090472;28;20024;-79
2022/01/16 06:02:37;;;;;;;145.85;70.88;;;;;;;0.99;100.00;102244.09;5089261;28;20031;-80
2022/01/16 06:05:03;;;;;;;144.65;70.30;;;;;;;1.00;100.00;102237.16;5079757;28;20028;-79
2022/01/16 06:07:29;;;;;;;142.65;69.93;;;;;;;1.03;100.00;102237.97;5082421;28;20084;-79
2022/01/16 06:09:54;;;;;;;135.95;69.95;;;;;;;1.04;100.00;102239.69;5090624;28;20106;-81
2022/01/16 06:12:20;;;;;;;139.93;68.85;;;;;;;1.06;100.00;102232.75;5088011;28;20107;-82
2022/01/16 06:14:45;;;;;;;144.90;69.38;;;;;;;1.08;100.00;102236.19;5072860;28;20042;-81
2022/01/16 06:17:12;;;;;;;148.60;70.93;;;;;;;1.09;100.00;102237.03;5069011;28;20021;-82
2022/01/16 06:19:37;;;;;;;141.50;71.35;;;;;;;1.11;100.00;102230.09;5068126;28;20036;-82
2022/01/16 06:22:03;;;;;;;145.15;71.47;;;;;;;1.14;100.00;102227.47;5075621;28;20024;-82
2022/01/16 06:24:29;;;;;;;160.18;73.28;;;;;;;1.17;100.00;102232.63;5069086;28;20032;-82
2022/01/16 06:26:54;;;;;;;151.30;71.88;;;;;;;1.21;100.00;102237.78;5068056;28;20017;-79
2022/01/16 06:29:20;;;;;;;145.88;70.93;;;;;;;1.24;100.00;102235.13;5068040;28;20036;-80
2022/01/16 06:31:45;;;;;;;153.23;72.15;;;;;;;1.28;100.00;102243.72;5069034;28;20082;-79
2022/01/16 06:34:11;;;;;;;149.32;70.13;;;;;;;1.29;100.00;102239.41;5083609;28;20082;-79
2022/01/16 06:36:37;;;;;;;149.88;72.25;;;;;;;1.32;100.00;102252.31;5100371;28;20020;-79
2022/01/16 06:39:05;;;;;;;150.35;71.03;;;;;;;1.35;100.00;102267.84;5087579;28;20028;-80
2022/01/16 06:41:30;;;;;;;153.52;73.40;;;;;;;1.35;100.00;102268.69;5079486;28;20616;-80
2022/01/16 06:43:56;;;;;;;150.70;72.10;;;;;;;1.41;100.00;102275.53;5087446;28;20119;-79
2022/01/16 06:46:21;;;;;;;144.65;69.85;;;;;;;1.41;100.00;102270.34;5081943;28;20111;-79
2022/01/16 06:48:47;;;;;;;148.85;69.68;;;;;;;1.45;100.00;102265.09;5089485;28;20032;-79
2022/01/16 06:51:13;;;;;;;149.07;70.13;;;;;;;1.48;100.00;102264.19;5078426;28;20112;-79
2022/01/16 06:53:38;;;;;;;136.30;69.72;;;;;;;1.48;100.00;102261.59;5074349;28;20088;-79
2022/01/16 06:56:04;;;;;;;135.65;66.30;;;;;;;1.53;100.00;102264.97;5089326;28;20027;-80
2022/01/16 06:58:29;;;;;;;141.45;70.20;;;;;;;1.53;100.00;102268.44;5087790;28;20023;-79
2022/01/16 07:00:54;;;;;;;132.30;67.20;;;;;;;1.56;100.00;102277.91;5088318;28;20020;-79
2022/01/16 07:03:20;;;;;;;131.73;65.70;;;;;;;1.57;100.00;102282.22;5081469;28;20084;-79
2022/01/16 07:05:45;;;;;;;130.40;65.03;;;;;;;1.60;100.00;102282.19;5092357;28;20028;-79
2022/01/16 07:08:14;;;;;;;128.27;65.50;;;;;;;1.63;100.00;102287.34;5084537;28;20037;-79
2022/01/16 07:10:39;;;;;;;125.63;64.13;;;;;;;1.64;100.00;102286.47;5084339;28;20100;-80
2022/01/16 07:13:04;;;;;;;125.85;62.92;;;;;;;1.67;100.00;102277.78;5087022;28;20032;-80
2022/01/16 07:15:30;;;;;;;129.55;62.92;;;;;;;1.67;100.00;102296.81;5079913;28;20024;-79
2022/01/16 07:17:56;;;;;;;126.93;61.92;;;;;;;1.72;100.00;102304.53;5090922;28;20096;-79
2022/01/16 07:20:21;;;;;;;122.72;62.05;;;;;;;1.73;100.00;102308.81;5085683;28;20028;-79
2022/01/16 07:22:47;;;;;;;127.28;62.10;;;;;;;1.75;100.00;102320.03;5083683;28;20056;-80
2022/01/16 07:25:13;;;;;;;122.78;60.17;;;;;;;1.77;100.00;102320.88;5087089;28;20039;-82
2022/01/16 07:27:39;;;;;;;117.38;60.45;;;;;;;1.77;100.00;102337.31;5080243;28;20043;-82
2022/01/16 07:30:05;;;;;;;121.97;60.45;;;;;;;1.81;100.00;102338.13;5088017;28;20028;-81
2022/01/16 07:32:31;;;;;;;115.32;58.63;;;;;;;1.82;100.00;102337.22;5079277;28;20020;-82
2022/01/16 07:34:56;;;;;;;118.60;59.47;;;;;;;1.84;100.00;102341.53;5087478;28;20050;-80
2022/01/16 07:37:22;;;;;;;109.63;56.28;;;;;;;1.88;100.00;102350.97;5080544;28;20099;-79
2022/01/16 07:39:47;;;;;;;117.80;57.58;;;;;;;1.89;100.00;102349.25;5085020;28;20027;-79
2022/01/16 07:42:13;;;;;;;110.85;55.05;;;;;;;1.93;100.00;102342.28;5084210;28;20020;-79
2022/01/16 07:44:38;;;;;;;101.53;54.42;;;;;;;1.94;100.00;102337.06;5086588;28;20039;-80
2022/01/16 07:47:04;;;;;;;110.55;54.90;;;;;;;1.96;100.00;102337.88;5087273;28;20738;-79
2022/01/16 07:49:30;;;;;;;108.88;53.88;;;;;;;1.98;100.00;102343.06;5082111;28;20062;-80
2022/01/16 07:51:55;;;;;;;104.60;54.72;;;;;;;1.99;100.00;102342.19;5087000;28;20016;-80
2022/01/16 07:54:21;;;;;;;103.60;54.28;;;;;;;2.04;100.00;102354.25;5087456;28;20016;-80
2022/01/16 07:56:46;;;;;;;110.43;54.17;;;;;;;2.06;100.00;102364.59;5087344;28;20024;-80
2022/01/16 07:59:12;;;;;;;104.72;54.05;;;;;;;2.07;100.00;102366.31;5085223;28;20032;-79
2022/01/16 08:01:37;;;;;;;107.47;55.05;;;;;;;2.09;100.00;102369.75;5084833;28;20472;-80
2022/01/16 08:04:04;;;;;;;104.57;54.92;;;;;;;2.11;100.00;102367.97;5085352;28;20035;-80
2022/01/16 08:06:29;;;;;;;108.05;55.25;;;;;;;2.14;100.00;102367.94;5087620;28;20083;-80
2022/01/16 08:08:56;;;;;;;102.88;53.47;;;;;;;2.16;100.00;102381.75;5105755;28;20024;-79
2022/01/16 08:11:21;;;;;;;97.90;52.45;;;;;;;2.18;100.00;102375.66;5082908;28;20133;-79
2022/01/16 08:13:46;;;;;;;105.53;53.70;;;;;;;2.19;100.00;102368.72;5092376;28;20059;-79
2022/01/16 08:16:12;;;;;;;102.30;53.00;;;;;;;2.22;100.00;102363.47;5091700;28;20077;-79
2022/01/16 08:18:37;;;;;;;105.60;53.28;;;;;;;2.25;100.00;102359.97;5089726;28;20111;-80
2022/01/16 08:21:02;;;;;;;103.05;51.90;;;;;;;2.25;100.00;102350.44;5081547;28;20034;-79
2022/01/16 08:23:28;;;;;;;105.07;52.30;;;;;;;2.28;100.00;102350.41;5090429;28;20020;-79
2022/01/16 08:25:53;;;;;;;109.93;53.88;;;;;;;2.31;100.00;102350.34;5091478;28;20047;-79
2022/01/16 08:28:22;;;;;;;110.28;53.40;;;;;;;2.29;100.00;102346.91;5088553;28;20028;-81
2022/01/16 08:30:47;;;;;;;106.13;53.28;;;;;;;2.33;100.00;102347.72;5086472;28;20032;-81
2022/01/16 08:33:12;;;;;;;103.38;52.17;;;;;;;2.33;100.00;102348.59;5083700;28;20050;-82
2022/01/16 08:35:37;;;;;;;101.15;52.03;;;;;;;2.36;100.00;102350.28;5092243;28;20448;-81
2022/01/16 08:38:03;;;;;;;109.50;53.30;;;;;;;2.38;100.00;102346.78;5083498;28;20059;-81
2022/01/16 08:40:28;;;;;;;105.47;52.67;;;;;;;2.39;100.00;102348.47;5073752;28;20025;-81
2022/01/16 08:42:54;;;;;;;110.63;52.60;;;;;;;2.41;100.00;102351.94;5092666;28;20411;-81
2022/01/16 08:45:19;;;;;;;108.03;53.17;;;;;;;2.42;100.00;102352.81;5091507;28;20157;-79
2022/01/16 08:47:46;;;;;;;101.45;52.47;;;;;;;2.43;100.00;102350.19;5089934;28;20055;-79
2022/01/16 08:50:14;;;;;;;110.38;54.13;;;;;;;2.46;100.00;102352.72;5091997;28;20070;-80
2022/01/16 08:52:40;;;;;;;108.90;54.65;;;;;;;2.47;100.00;102367.44;5089515;28;20028;-79
2022/01/16 08:55:08;;;;;;;103.63;51.65;;;;;;;2.49;100.00;102370.84;5086000;28;20035;-79
2022/01/16 08:57:34;;;;;;;111.22;52.80;;;;;;;2.53;100.00;102376.00;5090833;28;20024;-79
2022/01/16 08:59:59;;;;;;;110.15;51.92;;;;;;;2.55;100.00;102371.63;5079762;28;20105;-80
2022/01/16 09:02:25;;;;;;;109.55;53.53;;;;;;;2.57;100.00;102381.13;5085895;28;20387;-79
2022/01/16 09:04:50;;;;;;;115.68;54.42;;;;;;;2.60;100.00;102386.25;5089712;28;20038;-80
2022/01/16 09:07:17;;;;;;;111.65;53.05;;;;;;;2.62;100.00;102381.03;5089638;28;20031;-80
2022/01/16 09:09:42;;;;;;;117.07;53.22;;;;;;;2.63;100.00;102388.81;5082316;28;20032;-80
2022/01/16 09:12:08;;;;;;;114.78;52.70;;;;;;;2.67;100.00;102385.28;5090109;28;20377;-79
2022/01/16 09:14:34;;;;;;;119.75;54.63;;;;;;;2.69;100.00;102382.66;5083502;28;20078;-79
2022/01/16 09:17:00;;;;;;;121.32;55.65;;;;;;;2.70;100.00;102384.38;5088411;28;20031;-79
2022/01/16 09:19:25;;;;;;;118.70;54.97;;;;;;;2.72;100.00;102398.19;5082054;28;20456;-79
2022/01/16 09:21:50;;;;;;;119.20;55.45;;;;;;;2.75;100.00;102403.34;5090267;28;20110;-79
2022/01/16 09:24:16;;;;;;;118.95;53.97;;;;;;;2.76;100.00;102402.44;5087600;28;20052;-79
2022/01/16 09:26:41;;;;;;;123.57;56.45;;;;;;;2.80;100.00;102411.91;5085063;28;20476;-79
2022/01/16 09:29:06;;;;;;;121.53;56.47;;;;;;;2.82;100.00;102402.38;5082133;28;20048;-79
2022/01/16 09:31:32;;;;;;;133.15;59.10;;;;;;;2.84;100.00;102403.22;5090158;28;20115;-79
2022/01/16 09:33:58;;;;;;;128.38;57.33;;;;;;;2.85;100.00;102402.31;5106198;28;20423;-79
2022/01/16 09:36:24;;;;;;;134.30;58.25;;;;;;;2.87;100.00;102410.94;5089670;28;20114;-79
2022/01/16 09:38:49;;;;;;;129.25;56.33;;;;;;;2.90;100.00;102417.84;5081321;28;20103;-79
2022/01/16 09:41:14;;;;;;;134.10;57.90;;;;;;;2.93;100.00;102412.59;5089646;28;20040;-81
2022/01/16 09:43:40;;;;;;;138.70;59.08;;;;;;;2.96;100.00;102425.53;5089902;28;20468;-81
2022/01/16 09:46:06;;;;;;;147.98;60.45;;;;;;;2.97;100.00;102424.66;5091979;28;20027;-82
2022/01/16 09:48:32;;;;;;;153.10;60.28;;;;;;;2.98;100.00;102419.41;5090475;28;20050;-81
2022/01/16 09:50:57;;;;;;;151.82;60.65;;;;;;;3.03;100.00;102429.72;5091542;28;20468;-82
2022/01/16 09:53:24;;;;;;;157.55;62.55;;;;;;;3.02;100.00;102428.03;5091184;28;20032;-81
2022/01/16 09:55:49;;;;;;;153.45;60.13;;;;;;;3.03;100.00;102430.59;5090728;28;20461;-82
2022/01/16 09:58:15;;;;;;;162.63;63.00;;;;;;;3.05;100.00;102434.03;5091888;28;20091;-81
2022/01/16 10:00:40;;;;;;;152.88;61.17;;;;;;;3.07;100.00;102432.25;5090345;28;20487;-82
2022/01/16 10:03:05;;;;;;;156.98;59.80;;;;;;;3.10;100.00;102442.59;5090029;28;20023;-82
2022/01/16 10:05:36;;;;;;;156.55;61.08;;;;;;;3.13;100.00;102446.88;5091064;28;20061;-80
2022/01/16 10:08:07;;;;;;;156.00;59.83;;;;;;;3.18;100.00;102459.81;5090369;28;20132;-79
2022/01/16 10:10:42;;;;;;;160.43;59.15;;;;;;;3.19;100.00;102456.31;5089033;28;20020;-80
2022/01/16 10:13:23;;;;;;;163.27;60.67;;;;;;;3.25;100.00;102464.03;5077050;28;20056;-79
2022/01/16 10:15:56;;;;;;;156.60;58.90;;;;;;;3.23;100.00;102458.00;5071357;28;20028;-79
2022/01/16 10:18:38;;;;;;;159.77;60.10;;;;;;;3.29;100.00;102463.09;5085288;28;20043;-79
2022/01/16 10:21:05;;;;;;;172.98;60.63;;;;;;;3.28;100.00;102459.63;5070744;28;20024;-79
2022/01/16 10:23:38;;;;;;;155.32;58.45;;;;;;;3.32;100.00;102470.84;5069978;28;20029;-79
2022/01/16 10:26:04;;;;;;;165.73;58.40;;;;;;;3.33;100.00;102464.75;5069941;28;20030;-79
2022/01/16 10:28:29;;;;;;;158.40;57.72;;;;;;;3.35;100.00;102474.25;5074199;28;20016;-79
2022/01/16 10:30:56;;;;;;;151.10;57.13;;;;;;;3.38;100.00;102474.19;5090256;28;20533;-80
2022/01/16 10:33:27;;;;;;;152.52;57.03;;;;;;;3.39;100.00;102469.84;5090148;28;20024;-80
2022/01/16 10:35:54;;;;;;;159.25;55.88;;;;;;;3.40;100.00;102467.22;5089314;28;20065;-79
2022/01/16 10:38:26;;;;;;;154.82;56.53;;;;;;;3.43;100.00;102472.38;5089128;28;20024;-80
2022/01/16 10:40:55;;;;;;;158.77;56.00;;;;;;;3.47;100.00;102478.38;5090545;28;20052;-79
2022/01/16 10:43:42;;;;;;;161.80;58.08;;;;;;;3.50;100.00;102483.50;5090006;28;20415;-80
2022/01/16 10:46:09;;;;;;;155.75;56.22;;;;;;;3.53;100.00;102483.44;5085749;28;20067;-79
2022/01/16 10:48:35;;;;;;;148.30;55.30;;;;;;;3.54;100.00;102479.97;5069688;28;20036;-80
2022/01/16 10:51:01;;;;;;;146.50;55.42;;;;;;;3.59;100.00;102477.28;5070036;28;20060;-80
2022/01/16 10:53:30;;;;;;;145.23;54.65;;;;;;;3.61;100.00;102478.13;5069282;28;20024;-80
2022/01/16 10:56:03;;;;;;;136.65;53.15;;;;;;;3.64;100.00;102480.69;5070929;28;20095;-80
2022/01/16 10:58:50;;;;;;;145.20;54.90;;;;;;;3.68;100.00;102472.78;5070026;28;20021;-80
2022/01/16 11:01:16;;;;;;;134.60;52.47;;;;;;;3.69;100.00;102473.63;5069980;28;20020;-79
2022/01/16 11:03:45;;;;;;;136.27;51.45;;;;;;;3.68;100.00;102477.97;5077555;28;20043;-79
2022/01/16 11:06:18;;;;;;;143.05;54.17;;;;;;;3.74;100.00;102485.66;5072037;28;20422;-79
2022/01/16 11:08:54;;;;;;;130.95;50.47;;;;;;;3.77;100.00;102482.16;5090040;28;20023;-79
2022/01/16 11:11:25;;;;;;;145.63;53.35;;;;;;;3.78;100.00;102486.47;5090457;28;20027;-79
2022/01/16 11:13:51;;;;;;;131.10;51.70;;;;;;;3.78;100.00;102489.91;5079290;28;20552;-79
2022/01/16 11:16:17;;;;;;;130.60;51.40;;;;;;;3.81;100.00;102494.22;5070233;28;20274;-79
2022/01/16 11:18:49;;;;;;;125.97;52.00;;;;;;;3.82;100.00;102500.28;5069760;28;20035;-79
2022/01/16 11:21:18;;;;;;;131.88;52.88;;;;;;;3.83;100.00;102494.19;5078505;28;20028;-80
2022/01/16 11:24:00;;;;;;;133.95;52.58;;;;;;;3.83;100.00;102487.22;5090268;28;20376;-79
2022/01/16 11:26:27;;;;;;;132.23;51.67;;;;;;;3.83;100.00;102486.38;5089757;28;20073;-80
2022/01/16 11:28:54;;;;;;;126.43;52.03;;;;;;;3.85;100.00;102489.81;5105662;28;20020;-79
2022/01/16 11:31:20;;;;;;;127.95;50.67;;;;;;;3.87;100.00;102493.22;5088715;28;20487;-79
2022/01/16 11:33:46;;;;;;;123.05;52.03;;;;;;;3.87;100.00;102490.63;5090130;28;20048;-80
2022/01/16 11:36:34;;;;;;;126.43;51.78;;;;;;;3.90;100.00;102498.38;5105148;28;20012;-80
2022/01/16 11:39:03;;;;;;;124.80;51.25;;;;;;;3.90;100.00;102495.78;5088804;28;20028;-79
2022/01/16 11:41:33;;;;;;;122.63;50.20;;;;;;;3.88;100.00;102490.59;5091122;28;20024;-80
2022/01/16 11:44:03;;;;;;;123.47;51.13;;;;;;;3.89;100.00;102489.69;5093861;28;20566;-79